sensor_id;sensor_type;location;lat;lon;timestamp;pressure;altitude;pressure_sealevel;temperature
71897;BMP280;59767;51.344;12.362;2022-11-20T00:02:41;158039.06;;;-2.20
71897;BMP280;59767;51.344;12.362;2022-11-20T00:05:45;158039.06;;;-2.20
71897;BMP280;59767;51.344;12.362;2022-11-20T00:08:49;158029.94;;;-2.23
71897;BMP280;59767;51.344;12.362;2022-11-20T00:11:54;158019.47;;;-2.27
71897;BMP280;59767;51.344;12.362;2022-11-20T00:14:58;158022.16;;;-2.26
71897;BMP280;59767;51.344;12.362;2022-11-20T00:18:02;158027.31;;;-2.24
71897;BMP280;59767;51.344;12.362;2022-11-20T00:21:11;157992.22;;;-2.38
71897;BMP280;59767;51.344;12.362;2022-11-20T00:24:15;157988.34;;;-2.39
71897;BMP280;59767;51.344;12.362;2022-11-20T00:27:19;157984.44;;;-2.41
71897;BMP280;59767;51.344;12.362;2022-11-20T00:30:23;157980.56;;;-2.42
71897;BMP280;59767;51.344;12.362;2022-11-20T00:33:27;157974.03;;;-2.45
71897;BMP280;59767;51.344;12.362;2022-11-20T00:36:33;157962.38;;;-2.49
71897;BMP280;59767;51.344;12.362;2022-11-20T00:39:37;157966.25;;;-2.48
71897;BMP280;59767;51.344;12.362;2022-11-20T00:42:41;157967.56;;;-2.47
71897;BMP280;59767;51.344;12.362;2022-11-20T00:45:45;157958.47;;;-2.51
71897;BMP280;59767;51.344;12.362;2022-11-20T00:48:49;157966.25;;;-2.48
71897;BMP280;59767;51.344;12.362;2022-11-20T00:51:53;157959.78;;;-2.50
71897;BMP280;59767;51.344;12.362;2022-11-20T00:54:57;157977.94;;;-2.43
71897;BMP280;59767;51.344;12.362;2022-11-20T00:58:01;158002.59;;;-2.34
71897;BMP280;59767;51.344;12.362;2022-11-20T01:01:32;157989.66;;;-2.39
71897;BMP280;59767;51.344;12.362;2022-11-20T01:04:35;157970.13;;;-2.46
71897;BMP280;59767;51.344;12.362;2022-11-20T01:07:39;157965.00;;;-2.48
71897;BMP280;59767;51.344;12.362;2022-11-20T01:10:43;157954.56;;;-2.52
71897;BMP280;59767;51.344;12.362;2022-11-20T01:13:48;157970.13;;;-2.46
71897;BMP280;59767;51.344;12.362;2022-11-20T01:16:53;157968.88;;;-2.47
71897;BMP280;59767;51.344;12.362;2022-11-20T01:19:57;157949.38;;;-2.54
71897;BMP280;59767;51.344;12.362;2022-11-20T01:23:01;157933.81;;;-2.60
71897;BMP280;59767;51.344;12.362;2022-11-20T01:26:08;157929.84;;;-2.62
71897;BMP280;59767;51.344;12.362;2022-11-20T01:29:15;157925.97;;;-2.63
71897;BMP280;59767;51.344;12.362;2022-11-20T01:32:19;157910.41;;;-2.69
71897;BMP280;59767;51.344;12.362;2022-11-20T01:35:23;157902.63;;;-2.72
71897;BMP280;59767;51.344;12.362;2022-11-20T01:38:27;157889.63;;;-2.78
71897;BMP280;59767;51.344;12.362;2022-11-20T01:41:33;157900.00;;;-2.74
71897;BMP280;59767;51.344;12.362;2022-11-20T01:44:59;157889.63;;;-2.78
71897;BMP280;59767;51.344;12.362;2022-11-20T01:48:03;157875.31;;;-2.83
71897;BMP280;59767;51.344;12.362;2022-11-20T01:51:17;157857.19;;;-2.90
71897;BMP280;59767;51.344;12.362;2022-11-20T01:54:37;157871.44;;;-2.85
71897;BMP280;59767;51.344;12.362;2022-11-20T01:57:43;157870.16;;;-2.85
71897;BMP280;59767;51.344;12.362;2022-11-20T02:00:48;157858.50;;;-2.90
71897;BMP280;59767;51.344;12.362;2022-11-20T02:03:52;157846.72;;;-2.94
71897;BMP280;59767;51.344;12.362;2022-11-20T02:06:59;157848.03;;;-2.94
71897;BMP280;59767;51.344;12.362;2022-11-20T02:10:04;157840.25;;;-2.97
71897;BMP280;59767;51.344;12.362;2022-11-20T02:13:08;157832.47;;;-3.00
71897;BMP280;59767;51.344;12.362;2022-11-20T02:16:37;157836.38;;;-2.98
71897;BMP280;59767;51.344;12.362;2022-11-20T02:19:43;157845.47;;;-2.95
71897;BMP280;59767;51.344;12.362;2022-11-20T02:26:09;157857.19;;;-2.90
71897;BMP280;59767;51.344;12.362;2022-11-20T02:29:18;157872.75;;;-2.84
71897;BMP280;59767;51.344;12.362;2022-11-20T02:32:29;157875.31;;;-2.83
71897;BMP280;59767;51.344;12.362;2022-11-20T02:38:37;157854.50;;;-2.91
71897;BMP280;59767;51.344;12.362;2022-11-20T02:41:42;157851.94;;;-2.92
71897;BMP280;59767;51.344;12.362;2022-11-20T02:44:46;157845.47;;;-2.95
71897;BMP280;59767;51.344;12.362;2022-11-20T02:47:51;157820.81;;;-3.04
71897;BMP280;59767;51.344;12.362;2022-11-20T02:50:55;157815.59;;;-3.06
71897;BMP280;59767;51.344;12.362;2022-11-20T02:53:59;157820.81;;;-3.04
71897;BMP280;59767;51.344;12.362;2022-11-20T02:57:03;157818.19;;;-3.05
71897;BMP280;59767;51.344;12.362;2022-11-20T03:00:08;157814.28;;;-3.07
71897;BMP280;59767;51.344;12.362;2022-11-20T03:03:12;157802.63;;;-3.11
71897;BMP280;59767;51.344;12.362;2022-11-20T03:06:16;157807.81;;;-3.09
71897;BMP280;59767;51.344;12.362;2022-11-20T03:09:20;157800.03;;;-3.12
71897;BMP280;59767;51.344;12.362;2022-11-20T03:12:25;157784.44;;;-3.18
71897;BMP280;59767;51.344;12.362;2022-11-20T03:15:29;157781.84;;;-3.19
71897;BMP280;59767;51.344;12.362;2022-11-20T03:18:33;157784.44;;;-3.18
71897;BMP280;59767;51.344;12.362;2022-11-20T03:21:38;157763.66;;;-3.26
71897;BMP280;59767;51.344;12.362;2022-11-20T03:24:42;157781.84;;;-3.19
71897;BMP280;59767;51.344;12.362;2022-11-20T03:27:46;157803.94;;;-3.11
71897;BMP280;59767;51.344;12.362;2022-11-20T03:30:50;157776.59;;;-3.21
71897;BMP280;59767;51.344;12.362;2022-11-20T03:33:55;157777.91;;;-3.21
71897;BMP280;59767;51.344;12.362;2022-11-20T03:36:59;157777.91;;;-3.21
71897;BMP280;59767;51.344;12.362;2022-11-20T03:40:04;157784.44;;;-3.18
71897;BMP280;59767;51.344;12.362;2022-11-20T03:43:09;157781.84;;;-3.19
71897;BMP280;59767;51.344;12.362;2022-11-20T03:46:13;157772.72;;;-3.23
71897;BMP280;59767;51.344;12.362;2022-11-20T03:49:17;157775.34;;;-3.22
71897;BMP280;59767;51.344;12.362;2022-11-20T03:52:21;157770.13;;;-3.24
71897;BMP280;59767;51.344;12.362;2022-11-20T03:55:25;157774.03;;;-3.22
71897;BMP280;59767;51.344;12.362;2022-11-20T03:58:29;157809.09;;;-3.09
71897;BMP280;59767;51.344;12.362;2022-11-20T04:01:35;157783.16;;;-3.19
71897;BMP280;59767;51.344;12.362;2022-11-20T04:04:41;157806.50;;;-3.10
71897;BMP280;59767;51.344;12.362;2022-11-20T04:07:45;157783.16;;;-3.19
71897;BMP280;59767;51.344;12.362;2022-11-20T04:10:49;157762.34;;;-3.27
71897;BMP280;59767;51.344;12.362;2022-11-20T04:13:58;157772.72;;;-3.23
71897;BMP280;59767;51.344;12.362;2022-11-20T04:17:03;157753.25;;;-3.30
71897;BMP280;59767;51.344;12.362;2022-11-20T04:20:07;157746.78;;;-3.33
71897;BMP280;59767;51.344;12.362;2022-11-20T04:23:11;157754.56;;;-3.30
71897;BMP280;59767;51.344;12.362;2022-11-20T04:26:15;157741.59;;;-3.35
71897;BMP280;59767;51.344;12.362;2022-11-20T04:29:20;157724.72;;;-3.41
71897;BMP280;59767;51.344;12.362;2022-11-20T04:32:24;157741.59;;;-3.35
71897;BMP280;59767;51.344;12.362;2022-11-20T04:35:28;157732.50;;;-3.38
71897;BMP280;59767;51.344;12.362;2022-11-20T04:38:32;157705.22;;;-3.49
71897;BMP280;59767;51.344;12.362;2022-11-20T04:41:36;157713.00;;;-3.46
71897;BMP280;59767;51.344;12.362;2022-11-20T04:44:41;157710.38;;;-3.47
71897;BMP280;59767;51.344;12.362;2022-11-20T04:47:45;157702.59;;;-3.50
71897;BMP280;59767;51.344;12.362;2022-11-20T04:50:49;157709.13;;;-3.47
71897;BMP280;59767;51.344;12.362;2022-11-20T04:53:54;157724.72;;;-3.41
71897;BMP280;59767;51.344;12.362;2022-11-20T04:56:58;157694.81;;;-3.53
71897;BMP280;59767;51.344;12.362;2022-11-20T05:00:03;157680.56;;;-3.58
71897;BMP280;59767;51.344;12.362;2022-11-20T05:03:07;157684.47;;;-3.57
71897;BMP280;59767;51.344;12.362;2022-11-20T05:06:14;157689.66;;;-3.55
71897;BMP280;59767;51.344;12.362;2022-11-20T05:09:18;157674.06;;;-3.61
71897;BMP280;59767;51.344;12.362;2022-11-20T05:12:22;157663.72;;;-3.65
71897;BMP280;59767;51.344;12.362;2022-11-20T05:15:26;157662.41;;;-3.65
71897;BMP280;59767;51.344;12.362;2022-11-20T05:18:30;157642.91;;;-3.73
71897;BMP280;59767;51.344;12.362;2022-11-20T05:21:34;157636.38;;;-3.75
71897;BMP280;59767;51.344;12.362;2022-11-20T05:24:38;157646.78;;;-3.71
71897;BMP280;59767;51.344;12.362;2022-11-20T05:27:42;157648.09;;;-3.71
71897;BMP280;59767;51.344;12.362;2022-11-20T05:30:47;157624.72;;;-3.80
71897;BMP280;59767;51.344;12.362;2022-11-20T05:33:51;157624.72;;;-3.80
71897;BMP280;59767;51.344;12.362;2022-11-20T05:36:55;157642.91;;;-3.73
71897;BMP280;59767;51.344;12.362;2022-11-20T05:39:59;157648.09;;;-3.71
71897;BMP280;59767;51.344;12.362;2022-11-20T05:43:03;157637.69;;;-3.75
71897;BMP280;59767;51.344;12.362;2022-11-20T05:46:10;157628.63;;;-3.78
71897;BMP280;59767;51.344;12.362;2022-11-20T05:49:14;157616.94;;;-3.83
71897;BMP280;59767;51.344;12.362;2022-11-20T05:52:17;157619.56;;;-3.82
71897;BMP280;59767;51.344;12.362;2022-11-20T05:55:21;157614.38;;;-3.84
71897;BMP280;59767;51.344;12.362;2022-11-20T05:58:26;157606.59;;;-3.87
71897;BMP280;59767;51.344;12.362;2022-11-20T06:01:30;157611.75;;;-3.85
71897;BMP280;59767;51.344;12.362;2022-11-20T06:04:33;157610.50;;;-3.85
71897;BMP280;59767;51.344;12.362;2022-11-20T06:07:37;157603.97;;;-3.88
71897;BMP280;59767;51.344;12.362;2022-11-20T06:10:41;157594.88;;;-3.91
71897;BMP280;59767;51.344;12.362;2022-11-20T06:13:46;157593.56;;;-3.92
71897;BMP280;59767;51.344;12.362;2022-11-20T06:16:50;157606.59;;;-3.87
71897;BMP280;59767;51.344;12.362;2022-11-20T06:19:54;157606.59;;;-3.87
71897;BMP280;59767;51.344;12.362;2022-11-20T06:22:58;157607.88;;;-3.86
71897;BMP280;59767;51.344;12.362;2022-11-20T06:26:11;157601.41;;;-3.89
71897;BMP280;59767;51.344;12.362;2022-11-20T06:29:15;157611.75;;;-3.85
71897;BMP280;59767;51.344;12.362;2022-11-20T06:32:19;157620.84;;;-3.81
71897;BMP280;59767;51.344;12.362;2022-11-20T06:35:23;157623.47;;;-3.80
71897;BMP280;59767;51.344;12.362;2022-11-20T06:38:28;157613.06;;;-3.84
71897;BMP280;59767;51.344;12.362;2022-11-20T06:41:32;157610.50;;;-3.85
71897;BMP280;59767;51.344;12.362;2022-11-20T06:44:36;157619.56;;;-3.82
71897;BMP280;59767;51.344;12.362;2022-11-20T06:47:40;157642.91;;;-3.73
71897;BMP280;59767;51.344;12.362;2022-11-20T06:50:44;157657.19;;;-3.67
71897;BMP280;59767;51.344;12.362;2022-11-20T06:53:48;157629.94;;;-3.78
71897;BMP280;59767;51.344;12.362;2022-11-20T06:56:52;157654.63;;;-3.68
71897;BMP280;59767;51.344;12.362;2022-11-20T06:59:57;157649.38;;;-3.70
71897;BMP280;59767;51.344;12.362;2022-11-20T07:03:05;157658.50;;;-3.67
71897;BMP280;59767;51.344;12.362;2022-11-20T07:06:10;157649.38;;;-3.70
71897;BMP280;59767;51.344;12.362;2022-11-20T07:09:14;157649.38;;;-3.70
71897;BMP280;59767;51.344;12.362;2022-11-20T07:12:18;157649.38;;;-3.70
71897;BMP280;59767;51.344;12.362;2022-11-20T07:15:24;157657.19;;;-3.67
71897;BMP280;59767;51.344;12.362;2022-11-20T07:18:28;157629.94;;;-3.78
71897;BMP280;59767;51.344;12.362;2022-11-20T07:21:32;157642.91;;;-3.73
71897;BMP280;59767;51.344;12.362;2022-11-20T07:24:36;157629.94;;;-3.78
71897;BMP280;59767;51.344;12.362;2022-11-20T07:27:47;157627.34;;;-3.79
71897;BMP280;59767;51.344;12.362;2022-11-20T07:30:52;157649.38;;;-3.70
71897;BMP280;59767;51.344;12.362;2022-11-20T07:33:56;157645.47;;;-3.72
71897;BMP280;59767;51.344;12.362;2022-11-20T07:37:00;157650.69;;;-3.70
71897;BMP280;59767;51.344;12.362;2022-11-20T07:40:12;157672.81;;;-3.61
71897;BMP280;59767;51.344;12.362;2022-11-20T07:43:17;157683.16;;;-3.57
71897;BMP280;59767;51.344;12.362;2022-11-20T07:46:21;157702.59;;;-3.50
71897;BMP280;59767;51.344;12.362;2022-11-20T07:49:26;157705.22;;;-3.49
71897;BMP280;59767;51.344;12.362;2022-11-20T07:52:30;157726.03;;;-3.41
71897;BMP280;59767;51.344;12.362;2022-11-20T07:55:34;157750.69;;;-3.31
71897;BMP280;59767;51.344;12.362;2022-11-20T07:58:38;157763.66;;;-3.26
71897;BMP280;59767;51.344;12.362;2022-11-20T08:01:42;157751.94;;;-3.31
71897;BMP280;59767;51.344;12.362;2022-11-20T08:04:47;157762.34;;;-3.27
71897;BMP280;59767;51.344;12.362;2022-11-20T08:07:51;157784.44;;;-3.18
71897;BMP280;59767;51.344;12.362;2022-11-20T08:10:58;157777.91;;;-3.21
71897;BMP280;59767;51.344;12.362;2022-11-20T08:14:21;157818.19;;;-3.05
71897;BMP280;59767;51.344;12.362;2022-11-20T08:17:25;157836.38;;;-2.98
71897;BMP280;59767;51.344;12.362;2022-11-20T08:20:29;157850.63;;;-2.93
71897;BMP280;59767;51.344;12.362;2022-11-20T08:23:34;157880.53;;;-2.81
71897;BMP280;59767;51.344;12.362;2022-11-20T08:26:38;157937.69;;;-2.59
71897;BMP280;59767;51.344;12.362;2022-11-20T08:29:43;157998.72;;;-2.35
71897;BMP280;59767;51.344;12.362;2022-11-20T08:32:47;158028.63;;;-2.24
71897;BMP280;59767;51.344;12.362;2022-11-20T08:35:51;158065.00;;;-2.10
71897;BMP280;59767;51.344;12.362;2022-11-20T08:38:55;158123.44;;;-1.87
71897;BMP280;59767;51.344;12.362;2022-11-20T08:42:00;158146.88;;;-1.78
71897;BMP280;59767;51.344;12.362;2022-11-20T08:45:04;158148.19;;;-1.78
71897;BMP280;59767;51.344;12.362;2022-11-20T08:48:08;158163.75;;;-1.72
71897;BMP280;59767;51.344;12.362;2022-11-20T08:51:13;158170.28;;;-1.69
71897;BMP280;59767;51.344;12.362;2022-11-20T08:54:17;158193.66;;;-1.60
71897;BMP280;59767;51.344;12.362;2022-11-20T08:57:23;158235.22;;;-1.44
71897;BMP280;59767;51.344;12.362;2022-11-20T09:00:27;158267.75;;;-1.31
71897;BMP280;59767;51.344;12.362;2022-11-20T09:03:32;158313.25;;;-1.14
71897;BMP280;59767;51.344;12.362;2022-11-20T09:06:36;158335.38;;;-1.05
71897;BMP280;59767;51.344;12.362;2022-11-20T09:09:41;158347.06;;;-1.01
71897;BMP280;59767;51.344;12.362;2022-11-20T09:12:48;158353.53;;;-0.98
71897;BMP280;59767;51.344;12.362;2022-11-20T09:15:58;158374.34;;;-0.90
71897;BMP280;59767;51.344;12.362;2022-11-20T09:19:03;158379.56;;;-0.88
71897;BMP280;59767;51.344;12.362;2022-11-20T09:22:26;158373.09;;;-0.91
71897;BMP280;59767;51.344;12.362;2022-11-20T09:25:30;158380.88;;;-0.88
71897;BMP280;59767;51.344;12.362;2022-11-20T09:28:35;158356.19;;;-0.97
71897;BMP280;59767;51.344;12.362;2022-11-20T09:31:39;158339.28;;;-1.04
71897;BMP280;59767;51.344;12.362;2022-11-20T09:34:43;158332.75;;;-1.06
71897;BMP280;59767;51.344;12.362;2022-11-20T09:37:47;158304.16;;;-1.17
71897;BMP280;59767;51.344;12.362;2022-11-20T09:41:19;158336.63;;;-1.05
71897;BMP280;59767;51.344;12.362;2022-11-20T09:51:16;158391.25;;;-0.84
71897;BMP280;59767;51.344;12.362;2022-11-20T09:54:30;158425.06;;;-0.71
71897;BMP280;59767;51.344;12.362;2022-11-20T09:57:37;158443.28;;;-0.64
71897;BMP280;59767;51.344;12.362;2022-11-20T10:00:43;158435.44;;;-0.67
71897;BMP280;59767;51.344;12.362;2022-11-20T10:07:36;158419.84;;;-0.73
71897;BMP280;59767;51.344;12.362;2022-11-20T10:10:44;158417.28;;;-0.74
71897;BMP280;59767;51.344;12.362;2022-11-20T10:30:19;158484.84;;;-0.48
71897;BMP280;59767;51.344;12.362;2022-11-20T10:33:27;158449.78;;;-0.61
71897;BMP280;59767;51.344;12.362;2022-11-20T10:37:02;158457.56;;;-0.58
71897;BMP280;59767;51.344;12.362;2022-11-20T10:40:41;158465.38;;;-0.55
71897;BMP280;59767;51.344;12.362;2022-11-20T10:43:46;158479.69;;;-0.50
71897;BMP280;59767;51.344;12.362;2022-11-20T10:46:51;158492.69;;;-0.45
71897;BMP280;59767;51.344;12.362;2022-11-20T10:49:58;158539.53;;;-0.27
71897;BMP280;59767;51.344;12.362;2022-11-20T10:56:50;158529.16;;;-0.31
71897;BMP280;59767;51.344;12.362;2022-11-20T11:00:02;158539.53;;;-0.27
71897;BMP280;59767;51.344;12.362;2022-11-20T11:03:27;158520.00;;;-0.34
71897;BMP280;59767;51.344;12.362;2022-11-20T11:06:37;158523.91;;;-0.33
71897;BMP280;59767;51.344;12.362;2022-11-20T11:09:49;158559.03;;;-0.19
71897;BMP280;59767;51.344;12.362;2022-11-20T11:12:53;158598.09;;;-0.04
71897;BMP280;59767;51.344;12.362;2022-11-20T11:15:57;158598.09;;;-0.04
71897;BMP280;59767;51.344;12.362;2022-11-20T11:19:06;158604.56;;;-0.02
71897;BMP280;59767;51.344;12.362;2022-11-20T11:22:16;158590.28;;;-0.07
71897;BMP280;59767;51.344;12.362;2022-11-20T11:25:34;159052.34;;;1.71
71897;BMP280;59767;51.344;12.362;2022-11-20T11:28:38;158916.94;;;1.19
71897;BMP280;59767;51.344;12.362;2022-11-20T11:31:42;158898.69;;;1.12
71897;BMP280;59767;51.344;12.362;2022-11-20T11:34:59;158905.22;;;1.14
71897;BMP280;59767;51.344;12.362;2022-11-20T11:38:13;158920.84;;;1.20
71897;BMP280;59767;51.344;12.362;2022-11-20T11:41:28;158937.78;;;1.27
71897;BMP280;59767;51.344;12.362;2022-11-20T11:44:35;158940.38;;;1.28
71897;BMP280;59767;51.344;12.362;2022-11-20T11:48:02;158916.94;;;1.19
71897;BMP280;59767;51.344;12.362;2022-11-20T11:51:08;158877.84;;;1.04
71897;BMP280;59767;51.344;12.362;2022-11-20T11:54:17;158846.63;;;0.92
71897;BMP280;59767;51.344;12.362;2022-11-20T12:01:32;158768.53;;;0.62
71897;BMP280;59767;51.344;12.362;2022-11-20T12:04:46;158759.41;;;0.58
71897;BMP280;59767;51.344;12.362;2022-11-20T12:08:25;158751.59;;;0.55
71897;BMP280;59767;51.344;12.362;2022-11-20T12:11:47;158756.81;;;0.57
71897;BMP280;59767;51.344;12.362;2022-11-20T12:14:54;158755.50;;;0.57
71897;BMP280;59767;51.344;12.362;2022-11-20T12:17:58;158738.56;;;0.50
71897;BMP280;59767;51.344;12.362;2022-11-20T12:25:06;158772.44;;;0.63
71897;BMP280;59767;51.344;12.362;2022-11-20T12:49:25;158801.06;;;0.74
71897;BMP280;59767;51.344;12.362;2022-11-20T12:52:46;158799.75;;;0.74
71897;BMP280;59767;51.344;12.362;2022-11-20T12:59:13;158786.72;;;0.69
71897;BMP280;59767;51.344;12.362;2022-11-20T13:02:36;158816.66;;;0.80
71897;BMP280;59767;51.344;12.362;2022-11-20T13:05:53;158808.88;;;0.77
71897;BMP280;59767;51.344;12.362;2022-11-20T13:09:00;158815.34;;;0.80
71897;BMP280;59767;51.344;12.362;2022-11-20T13:12:15;158811.44;;;0.78
71897;BMP280;59767;51.344;12.362;2022-11-20T13:15:36;158825.78;;;0.84
71897;BMP280;59767;51.344;12.362;2022-11-20T13:18:44;158820.56;;;0.82
71897;BMP280;59767;51.344;12.362;2022-11-20T13:21:49;158814.09;;;0.79
71897;BMP280;59767;51.344;12.362;2022-11-20T13:24:54;158789.34;;;0.70
71897;BMP280;59767;51.344;12.362;2022-11-20T13:28:01;158801.06;;;0.74
71897;BMP280;59767;51.344;12.362;2022-11-20T13:31:23;158791.94;;;0.71
71897;BMP280;59767;51.344;12.362;2022-11-20T13:34:29;158784.13;;;0.68
71897;BMP280;59767;51.344;12.362;2022-11-20T13:37:36;158777.59;;;0.65
71897;BMP280;59767;51.344;12.362;2022-11-20T13:40:58;158785.44;;;0.68
71897;BMP280;59767;51.344;12.362;2022-11-20T13:44:14;158786.72;;;0.69
71897;BMP280;59767;51.344;12.362;2022-11-20T13:47:27;158776.31;;;0.65
71897;BMP280;59767;51.344;12.362;2022-11-20T13:50:39;158810.19;;;0.78
71897;BMP280;59767;51.344;12.362;2022-11-20T13:53:57;158782.81;;;0.67
71897;BMP280;59767;51.344;12.362;2022-11-20T13:57:43;158769.78;;;0.62
71897;BMP280;59767;51.344;12.362;2022-11-20T14:01:24;158790.63;;;0.70
71897;BMP280;59767;51.344;12.362;2022-11-20T14:04:33;158803.66;;;0.75
71897;BMP280;59767;51.344;12.362;2022-11-20T14:07:40;158789.34;;;0.70
71897;BMP280;59767;51.344;12.362;2022-11-20T14:10:45;158798.44;;;0.73
71897;BMP280;59767;51.344;12.362;2022-11-20T14:14:15;158762.00;;;0.59
71897;BMP280;59767;51.344;12.362;2022-11-20T14:17:40;158763.31;;;0.60
71897;BMP280;59767;51.344;12.362;2022-11-20T14:20:44;158765.88;;;0.61
71897;BMP280;59767;51.344;12.362;2022-11-20T14:23:48;158755.50;;;0.57
71897;BMP280;59767;51.344;12.362;2022-11-20T14:26:52;158764.63;;;0.60
71897;BMP280;59767;51.344;12.362;2022-11-20T14:30:00;158754.19;;;0.56
71897;BMP280;59767;51.344;12.362;2022-11-20T14:33:05;158739.88;;;0.51
71897;BMP280;59767;51.344;12.362;2022-11-20T14:36:16;158736.00;;;0.49
71897;BMP280;59767;51.344;12.362;2022-11-20T14:39:21;158743.78;;;0.52
71897;BMP280;59767;51.344;12.362;2022-11-20T14:42:28;158721.66;;;0.44
71897;BMP280;59767;51.344;12.362;2022-11-20T14:45:32;158707.38;;;0.38
71897;BMP280;59767;51.344;12.362;2022-11-20T14:48:47;158687.84;;;0.31
71897;BMP280;59767;51.344;12.362;2022-11-20T14:52:02;158695.63;;;0.34
71897;BMP280;59767;51.344;12.362;2022-11-20T14:55:07;158686.59;;;0.30
71897;BMP280;59767;51.344;12.362;2022-11-20T14:58:24;158667.03;;;0.23
71897;BMP280;59767;51.344;12.362;2022-11-20T15:01:30;158651.44;;;0.17
71897;BMP280;59767;51.344;12.362;2022-11-20T15:04:47;158633.25;;;0.10
71897;BMP280;59767;51.344;12.362;2022-11-20T15:08:06;158641.06;;;0.13
71897;BMP280;59767;51.344;12.362;2022-11-20T15:11:25;158625.41;;;0.07
71897;BMP280;59767;51.344;12.362;2022-11-20T15:14:31;158637.16;;;0.11
71897;BMP280;59767;51.344;12.362;2022-11-20T15:17:37;158621.50;;;0.05
71897;BMP280;59767;51.344;12.362;2022-11-20T15:20:43;158599.41;;;-0.04
71897;BMP280;59767;51.344;12.362;2022-11-20T15:23:48;158582.50;;;-0.10
71897;BMP280;59767;51.344;12.362;2022-11-20T15:26:52;158565.56;;;-0.17
71897;BMP280;59767;51.344;12.362;2022-11-20T15:29:56;158555.16;;;-0.21
71897;BMP280;59767;51.344;12.362;2022-11-20T15:33:00;158557.78;;;-0.20
71897;BMP280;59767;51.344;12.362;2022-11-20T15:36:05;158536.97;;;-0.28
71897;BMP280;59767;51.344;12.362;2022-11-20T15:39:09;158527.84;;;-0.31
71897;BMP280;59767;51.344;12.362;2022-11-20T15:42:14;158522.59;;;-0.33
71897;BMP280;59767;51.344;12.362;2022-11-20T15:45:18;158535.66;;;-0.28
71897;BMP280;59767;51.344;12.362;2022-11-20T15:48:26;158521.31;;;-0.34
71897;BMP280;59767;51.344;12.362;2022-11-20T15:51:33;158503.09;;;-0.41
71897;BMP280;59767;51.344;12.362;2022-11-20T15:54:38;158495.28;;;-0.44
71897;BMP280;59767;51.344;12.362;2022-11-20T15:57:42;158492.69;;;-0.45
71897;BMP280;59767;51.344;12.362;2022-11-20T16:00:46;158497.88;;;-0.43
71897;BMP280;59767;51.344;12.362;2022-11-20T16:03:50;158492.69;;;-0.45
71897;BMP280;59767;51.344;12.362;2022-11-20T16:06:55;158482.28;;;-0.49
71897;BMP280;59767;51.344;12.362;2022-11-20T16:09:59;158461.47;;;-0.57
71897;BMP280;59767;51.344;12.362;2022-11-20T16:13:08;158456.25;;;-0.59
71897;BMP280;59767;51.344;12.362;2022-11-20T16:16:37;158443.28;;;-0.64
71897;BMP280;59767;51.344;12.362;2022-11-20T16:19:43;158447.19;;;-0.62
71897;BMP280;59767;51.344;12.362;2022-11-20T16:22:47;158438.06;;;-0.66
71897;BMP280;59767;51.344;12.362;2022-11-20T16:25:51;158440.66;;;-0.65
71897;BMP280;59767;51.344;12.362;2022-11-20T16:28:56;158438.06;;;-0.66
71897;BMP280;59767;51.344;12.362;2022-11-20T16:32:00;158426.38;;;-0.70
71897;BMP280;59767;51.344;12.362;2022-11-20T16:35:04;158418.59;;;-0.73
71897;BMP280;59767;51.344;12.362;2022-11-20T16:38:09;158421.16;;;-0.72
71897;BMP280;59767;51.344;12.362;2022-11-20T16:41:13;158413.38;;;-0.75
71897;BMP280;59767;51.344;12.362;2022-11-20T16:44:18;158397.78;;;-0.81
71897;BMP280;59767;51.344;12.362;2022-11-20T16:47:22;158401.69;;;-0.80
71897;BMP280;59767;51.344;12.362;2022-11-20T16:50:26;158405.56;;;-0.78
71897;BMP280;59767;51.344;12.362;2022-11-20T16:53:32;158406.84;;;-0.78
71897;BMP280;59767;51.344;12.362;2022-11-20T16:56:36;158391.25;;;-0.84
71897;BMP280;59767;51.344;12.362;2022-11-20T16:59:41;158388.66;;;-0.85
71897;BMP280;59767;51.344;12.362;2022-11-20T17:02:46;158375.66;;;-0.90
71897;BMP280;59767;51.344;12.362;2022-11-20T17:05:50;158373.09;;;-0.91
71897;BMP280;59767;51.344;12.362;2022-11-20T17:08:55;158379.56;;;-0.88
71897;BMP280;59767;51.344;12.362;2022-11-20T17:12:00;158387.34;;;-0.85
71897;BMP280;59767;51.344;12.362;2022-11-20T17:15:04;158388.66;;;-0.85
71897;BMP280;59767;51.344;12.362;2022-11-20T17:18:08;158384.78;;;-0.86
71897;BMP280;59767;51.344;12.362;2022-11-20T17:21:12;158367.88;;;-0.93
71897;BMP280;59767;51.344;12.362;2022-11-20T17:24:17;158370.44;;;-0.92
71897;BMP280;59767;51.344;12.362;2022-11-20T17:27:21;158360.06;;;-0.96
71897;BMP280;59767;51.344;12.362;2022-11-20T17:30:25;158352.28;;;-0.99
71897;BMP280;59767;51.344;12.362;2022-11-20T17:33:30;158349.66;;;-1.00
71897;BMP280;59767;51.344;12.362;2022-11-20T17:36:34;158331.47;;;-1.07
71897;BMP280;59767;51.344;12.362;2022-11-20T17:39:42;158321.06;;;-1.11
71897;BMP280;59767;51.344;12.362;2022-11-20T17:42:47;158304.16;;;-1.17
71897;BMP280;59767;51.344;12.362;2022-11-20T17:45:51;158310.69;;;-1.15
71897;BMP280;59767;51.344;12.362;2022-11-20T17:48:56;158297.66;;;-1.20
71897;BMP280;59767;51.344;12.362;2022-11-20T17:52:00;158310.69;;;-1.15
71897;BMP280;59767;51.344;12.362;2022-11-20T17:55:05;158302.88;;;-1.18
71897;BMP280;59767;51.344;12.362;2022-11-20T17:58:10;158305.47;;;-1.17
71897;BMP280;59767;51.344;12.362;2022-11-20T18:01:15;158313.25;;;-1.14
71897;BMP280;59767;51.344;12.362;2022-11-20T18:04:19;158287.25;;;-1.24
71897;BMP280;59767;51.344;12.362;2022-11-20T18:07:24;158300.25;;;-1.19
71897;BMP280;59767;51.344;12.362;2022-11-20T18:10:29;158302.88;;;-1.18
71897;BMP280;59767;51.344;12.362;2022-11-20T18:13:33;158304.16;;;-1.17
71897;BMP280;59767;51.344;12.362;2022-11-20T18:17:01;158315.84;;;-1.13
71897;BMP280;59767;51.344;12.362;2022-11-20T18:20:06;158317.16;;;-1.12
71897;BMP280;59767;51.344;12.362;2022-11-20T18:23:32;158323.69;;;-1.10
71897;BMP280;59767;51.344;12.362;2022-11-20T18:26:37;158319.78;;;-1.11
71897;BMP280;59767;51.344;12.362;2022-11-20T18:29:47;158322.38;;;-1.10
71897;BMP280;59767;51.344;12.362;2022-11-20T18:32:54;158334.06;;;-1.06
71897;BMP280;59767;51.344;12.362;2022-11-20T18:36:14;158343.16;;;-1.02
71897;BMP280;59767;51.344;12.362;2022-11-20T18:39:18;158345.75;;;-1.01
71897;BMP280;59767;51.344;12.362;2022-11-20T18:42:22;158345.75;;;-1.01